Terminal Aerodrome Forecast
Issued by NWS

Home | Current Version | Previous Version | Graphics & Text | Print | Product List | Glossary On
Versions: 1 2 3 4 5 6 7 8 9 10 11 12 13 14 15 16 17 18 19 20 21 22 23 24 25
000
FTUS43 KGRB 290636 AAA
TAFRHI
TAF AMD
KRHI 290636Z 2907/3006 VRB03KT P6SM SCT025 BKN250
      TEMPO 2907/2911 1/2SM FG BKN002
     FM291100 14003KT 6SM BR BKN100 OVC200
     FM291300 19003KT 4SM BR BKN008
     FM291700 19008KT P6SM -SHRA BKN020
     FM292000 19008KT P6SM SCT025 BKN100
     FM292300 23004KT P6SM SCT100 BKN250=

USA.gov is the U.S. government's official web portal to all federal, state and local government web resources and services.